Time;durP1;ratioP1;P1;durP2;ratioP2;P2;SDS_P1;SDS_P2;PMS_P1;PMS_P2;Temp;Humidity;BMP_temperature;BMP_pressure;BME280_temperature;BME280_humidity;BME280_pressure;Samples;Min_cycle;Max_cycle;Signal;HPM_P1;HPM_P2
2022/03/09 00:00:22;;;;;;;3.92;1.13;;;20.80;45.30;;;;;;4934902;29;20065;-83
2022/03/09 00:03:25;;;;;;;3.55;0.90;;;20.70;44.60;;;;;;4934882;29;20533;-83
2022/03/09 00:05:51;;;;;;;4.30;1.10;;;18.20;42.90;;;;;;4860711;29;20057;-83
2022/03/09 00:08:16;;;;;;;2.85;0.80;;;20.50;44.50;;;;;;4861508;29;20044;-83
2022/03/09 00:11:04;;;;;;;5.07;1.05;;;19.80;44.60;;;;;;4934297;29;20055;-83
2022/03/09 00:13:39;;;;;;;4.45;1.05;;;18.60;43.10;;;;;;4935128;29;20048;-83
2022/03/09 00:16:04;;;;;;;2.40;0.70;;;18.90;43.80;;;;;;4934621;29;20052;-83
2022/03/09 00:18:46;;;;;;;4.05;1.20;;;19.20;44.10;;;;;;4934182;29;20044;-83
2022/03/09 00:21:32;;;;;;;4.25;1.10;;;17.50;43.60;;;;;;4934614;29;20075;-83
2022/03/09 00:24:02;;;;;;;4.53;1.02;;;20.60;45.40;;;;;;4933921;29;20095;-83
2022/03/09 00:26:28;;;;;;;2.95;0.90;;;19.20;43.50;;;;;;4933698;29;20103;-83
2022/03/09 00:28:57;;;;;;;3.50;1.02;;;18.20;44.20;;;;;;4934245;29;20051;-83
2022/03/09 00:31:47;;;;;;;3.95;1.00;;;20.80;44.70;;;;;;4936863;29;20162;-83
2022/03/09 00:34:13;;;;;;;3.95;1.00;;;19.20;43.90;;;;;;4936895;29;20058;-83
2022/03/09 00:36:48;;;;;;;4.82;1.00;;;20.30;45.00;;;;;;4937202;29;20047;-83
2022/03/09 00:39:13;;;;;;;2.90;0.70;;;19.20;43.80;;;;;;4936696;29;20071;-83
2022/03/09 00:41:42;;;;;;;2.78;0.77;;;18.60;43.30;;;;;;4937351;29;20530;-83
2022/03/09 00:44:07;;;;;;;3.60;1.13;;;18.90;43.70;;;;;;4937581;29;20384;-83
2022/03/09 00:46:49;;;;;;;4.47;1.02;;;19.10;43.80;;;;;;4936352;29;20058;-83
2022/03/09 00:49:15;;;;;;;3.33;0.98;;;18.50;43.20;;;;;;4936719;29;20448;-83
2022/03/09 00:51:40;;;;;;;3.30;1.10;;;17.20;42.90;;;;;;4937262;29;20059;-83
2022/03/09 00:54:35;;;;;;;2.78;0.90;;;20.30;44.50;;;;;;4936513;29;20475;-83
2022/03/09 00:57:19;;;;;;;2.92;0.85;;;18.40;43.50;;;;;;4916456;29;20086;-83
2022/03/09 00:59:45;;;;;;;2.22;0.70;;;20.30;44.60;;;;;;4937107;29;20043;-83
2022/03/09 01:02:17;;;;;;;3.63;1.08;;;18.20;43.40;;;;;;4936084;29;20047;-83
2022/03/09 01:04:42;;;;;;;2.30;0.70;;;19.90;44.50;;;;;;4936861;29;20173;-83
2022/03/09 01:07:08;;;;;;;2.75;0.70;;;18.00;43.20;;;;;;4936310;29;20138;-83
2022/03/09 01:09:50;;;;;;;2.10;0.73;;;19.00;43.80;;;;;;4936695;29;20504;-83
2022/03/09 01:12:36;;;;;;;3.00;0.90;;;20.10;44.70;;;;;;4936615;29;20142;-83
2022/03/09 01:15:01;;;;;;;2.70;0.93;;;20.10;44.70;;;;;;4936320;29;20094;-83
2022/03/09 01:17:27;;;;;;;2.88;0.70;;;19.00;43.90;;;;;;4936967;29;20055;-83
2022/03/09 01:20:05;;;;;;;2.40;0.80;;;19.60;44.10;;;;;;4936860;29;20551;-83
2022/03/09 01:22:37;;;;;;;2.92;0.80;;;19.00;43.60;;;;;;4920261;29;20089;-83
2022/03/09 01:25:03;;;;;;;2.42;0.80;;;18.00;43.50;;;;;;4936689;29;20043;-83
2022/03/09 01:27:31;;;;;;;2.40;0.98;;;19.00;43.70;;;;;;4936582;29;20126;-83
2022/03/09 01:30:12;;;;;;;2.90;0.80;;;19.30;44.20;;;;;;4935956;29;20087;-83
2022/03/09 01:32:37;;;;;;;2.47;0.90;;;18.70;43.90;;;;;;4936106;29;20112;-83
2022/03/09 01:35:06;;;;;;;3.25;1.00;;;19.20;43.80;;;;;;4935395;29;20051;-83
2022/03/09 01:37:52;;;;;;;2.40;0.90;;;19.00;43.60;;;;;;4920805;29;20043;-83
2022/03/09 01:40:32;;;;;;;1.92;0.60;;;19.50;44.10;;;;;;4935715;29;20066;-84
2022/03/09 01:43:14;;;;;;;2.30;0.85;;;20.50;45.30;;;;;;4935646;29;20415;-83
2022/03/09 01:45:48;;;;;;;3.53;0.82;;;18.50;44.00;;;;;;4936754;29;20042;-84
2022/03/09 01:48:26;;;;;;;2.65;0.90;;;19.40;44.10;;;;;;4936176;29;20147;-84
2022/03/09 01:51:15;;;;;;;3.53;1.00;;;18.90;44.40;;;;;;4935376;29;20476;-83
2022/03/09 01:53:40;;;;;;;2.90;0.90;;;18.90;43.80;;;;;;4920346;29;20109;-83
2022/03/09 01:56:18;;;;;;;1.95;0.55;;;18.90;43.70;;;;;;4935816;29;20524;-84
2022/03/09 01:58:44;;;;;;;2.72;0.75;;;18.70;44.10;;;;;;4904312;29;20047;-83
2022/03/09 02:01:14;;;;;;;2.63;1.05;;;20.00;44.30;;;;;;4904272;29;20054;-83
2022/03/09 02:03:43;;;;;;;2.30;0.85;;;19.00;43.80;;;;;;4934529;29;20479;-83
2022/03/09 02:06:09;;;;;;;2.50;0.88;;;20.60;44.70;;;;;;4935690;29;20047;-83
2022/03/09 02:12:18;;;;;;;2.70;0.75;;;18.80;43.50;;;;;;4923077;29;20051;-84
2022/03/09 02:17:33;;;;;;;2.10;0.70;;;18.30;43.30;;;;;;4934811;29;20087;-83
2022/03/09 02:20:51;;;;;;;3.00;0.70;;;18.40;43.70;;;;;;4935553;29;20086;-84
2022/03/09 02:23:16;;;;;;;2.10;0.60;;;17.70;43.30;;;;;;4934769;29;20567;-84
2022/03/09 02:25:48;;;;;;;3.28;0.70;;;18.80;44.20;;;;;;4903198;29;20046;-83
2022/03/09 02:28:26;;;;;;;2.92;1.02;;;19.20;44.20;;;;;;4920368;29;20043;-83
2022/03/09 02:31:10;;;;;;;2.40;0.75;;;20.10;44.60;;;;;;4935707;29;20518;-84
2022/03/09 02:33:36;;;;;;;2.05;0.63;;;18.80;44.00;;;;;;4912425;29;20056;-83
2022/03/09 02:36:20;;;;;;;2.17;0.82;;;20.00;44.90;;;;;;4913354;29;20076;-83
2022/03/09 02:38:46;;;;;;;2.38;0.70;;;19.10;44.30;;;;;;4912514;29;20048;-83
2022/03/09 02:41:11;;;;;;;2.38;0.70;;;18.00;43.70;;;;;;4913267;29;20115;-83
2022/03/09 02:43:55;;;;;;;3.42;0.85;;;18.40;43.60;;;;;;4912862;29;20059;-83
2022/03/09 02:46:21;;;;;;;2.05;0.75;;;18.90;43.80;;;;;;4912285;29;20056;-83
2022/03/09 02:48:50;;;;;;;1.73;0.70;;;20.00;44.80;;;;;;4913349;29;20143;-83
2022/03/09 02:51:33;;;;;;;2.30;0.70;;;20.30;45.00;;;;;;4911871;29;20064;-83
2022/03/09 02:53:58;;;;;;;2.67;0.70;;;18.70;43.70;;;;;;4912463;29;20043;-84
2022/03/09 02:56:24;;;;;;;2.25;0.85;;;17.50;43.30;;;;;;4913257;29;20098;-83
2022/03/09 02:58:50;;;;;;;2.92;0.90;;;19.90;44.70;;;;;;4913257;29;20547;-83
2022/03/09 03:01:18;;;;;;;2.03;0.63;;;18.10;44.00;;;;;;4912121;29;20052;-83
2022/03/09 03:03:55;;;;;;;2.05;0.60;;;17.90;42.90;;;;;;4913323;29;20778;-83
2022/03/09 03:06:21;;;;;;;3.20;0.80;;;17.20;43.30;;;;;;4913202;29;20056;-83
2022/03/09 03:08:47;;;;;;;2.83;0.63;;;18.70;43.80;;;;;;4911117;29;20385;-83
2022/03/09 03:11:34;;;;;;;2.22;0.70;;;19.80;44.30;;;;;;4913139;29;20060;-83
2022/03/09 03:14:00;;;;;;;2.00;0.77;;;18.80;43.40;;;;;;4912459;29;20471;-83
2022/03/09 03:16:51;;;;;;;2.45;0.70;;;18.90;43.80;;;;;;4937785;23;20591;-83
2022/03/09 03:22:04;;;;;;;2.08;0.57;;;18.70;43.40;;;;;;4974105;23;20063;-82
2022/03/09 03:24:42;;;;;;;1.70;0.60;;;18.20;43.90;;;;;;4935106;29;20051;-83
2022/03/09 03:27:07;;;;;;;2.20;0.70;;;19.10;44.80;;;;;;4934847;29;20388;-83
2022/03/09 03:29:48;;;;;;;1.80;0.70;;;18.70;43.70;;;;;;4934214;29;20053;-83
2022/03/09 03:32:14;;;;;;;1.83;0.60;;;18.50;43.80;;;;;;4918887;29;20787;-83
2022/03/09 03:34:42;;;;;;;2.35;0.70;;;18.50;43.40;;;;;;4934987;29;20054;-83
2022/03/09 03:37:26;;;;;;;2.65;0.90;;;19.10;43.60;;;;;;4934741;29;20138;-83
2022/03/09 03:40:24;;;;;;;2.22;0.70;;;16.20;42.80;;;;;;4941447;23;20051;-83
2022/03/09 03:42:50;;;;;;;1.60;0.68;;;18.90;43.50;;;;;;4933790;29;20714;-83
2022/03/09 03:45:25;;;;;;;1.58;0.68;;;20.20;44.80;;;;;;4934747;29;20488;-83
2022/03/09 03:47:57;;;;;;;2.00;0.77;;;18.30;43.90;;;;;;4934796;29;20400;-82
2022/03/09 03:50:29;;;;;;;2.80;0.77;;;18.00;43.50;;;;;;4934155;29;20055;-83
2022/03/09 03:53:00;;;;;;;2.00;0.80;;;18.70;44.40;;;;;;4934849;29;20443;-83
2022/03/09 03:56:26;;;;;;;2.03;0.80;;;18.60;44.80;;;;;;4934519;29;20051;-83
2022/03/09 03:59:04;;;;;;;2.13;0.70;;;17.60;42.80;;;;;;4921080;29;20114;-84
2022/03/09 04:01:30;;;;;;;1.65;0.63;;;18.10;43.60;;;;;;4938202;29;20054;-83
2022/03/09 04:03:55;;;;;;;1.13;0.70;;;20.10;44.60;;;;;;4937511;29;20043;-83
2022/03/09 04:06:21;;;;;;;2.33;0.60;;;19.90;44.50;;;;;;4938077;29;20514;-83
2022/03/09 04:08:56;;;;;;;1.75;0.60;;;19.70;44.40;;;;;;4938009;29;20043;-83
2022/03/09 04:11:25;;;;;;;2.90;0.70;;;19.70;44.80;;;;;;4937143;29;20142;-83
2022/03/09 04:13:56;;;;;;;1.25;0.50;;;17.60;43.20;;;;;;4938049;29;20047;-83
2022/03/09 04:16:51;;;;;;;1.88;0.70;;;16.80;42.90;;;;;;4937770;29;20055;-83
2022/03/09 04:19:28;;;;;;;1.98;0.68;;;18.50;43.60;;;;;;4901908;29;20105;-83
2022/03/09 04:21:54;;;;;;;1.73;0.65;;;17.70;43.70;;;;;;4937829;29;20062;-84
2022/03/09 04:24:20;;;;;;;1.42;0.50;;;18.60;44.20;;;;;;4937037;29;20437;-82
2022/03/09 04:26:54;;;;;;;2.05;0.85;;;18.50;43.50;;;;;;4937547;29;20055;-82
2022/03/09 04:29:20;;;;;;;2.53;0.70;;;19.70;44.20;;;;;;4937495;29;20054;-82
2022/03/09 04:31:48;;;;;;;2.72;0.80;;;16.70;42.70;;;;;;4936717;29;20047;-82
2022/03/09 04:34:13;;;;;;;1.38;0.60;;;18.50;43.40;;;;;;4937183;29;20055;-82
2022/03/09 04:36:41;;;;;;;2.35;0.90;;;18.50;43.60;;;;;;4937313;29;20047;-82
2022/03/09 04:39:07;;;;;;;2.33;0.70;;;18.20;43.30;;;;;;4936543;29;20059;-82
2022/03/09 04:41:45;;;;;;;2.25;0.60;;;19.90;44.50;;;;;;4937514;29;20054;-82
2022/03/09 04:44:11;;;;;;;1.65;0.60;;;18.40;44.40;;;;;;4937251;29;20137;-82
2022/03/09 04:46:36;;;;;;;1.67;0.50;;;19.70;44.20;;;;;;4936627;29;20169;-83
2022/03/09 04:49:02;;;;;;;1.20;0.50;;;18.50;43.50;;;;;;4937445;29;20050;-82
2022/03/09 04:51:28;;;;;;;1.52;0.68;;;18.50;43.40;;;;;;4937444;29;20164;-83
2022/03/09 04:53:53;;;;;;;2.47;0.80;;;18.50;43.40;;;;;;4936766;29;20559;-82
2022/03/09 04:56:25;;;;;;;1.27;0.60;;;18.50;43.40;;;;;;4937005;29;20074;-83
2022/03/09 04:58:51;;;;;;;;;;;18.40;43.30;;;;;;4937813;29;20515;-82
2022/03/09 05:01:16;;;;;;;1.88;0.60;;;18.40;43.30;;;;;;4936506;29;19937;-82
2022/03/09 05:03:42;;;;;;;3.00;0.70;;;18.40;43.30;;;;;;4937089;29;20050;-82
2022/03/09 05:06:07;;;;;;;2.10;0.77;;;18.50;43.40;;;;;;4936687;29;20187;-82
2022/03/09 05:08:36;;;;;;;2.00;0.77;;;18.50;43.60;;;;;;4936635;29;20492;-83
2022/03/09 05:11:02;;;;;;;2.00;0.68;;;18.40;43.30;;;;;;4937294;29;20515;-82
2022/03/09 05:13:27;;;;;;;1.75;0.75;;;18.50;43.40;;;;;;4936282;29;20094;-82
2022/03/09 05:15:53;;;;;;;1.67;0.52;;;18.40;43.30;;;;;;4936938;29;20051;-83
2022/03/09 05:18:19;;;;;;;1.15;0.60;;;18.40;43.30;;;;;;4936861;29;20487;-82
2022/03/09 05:20:46;;;;;;;2.70;0.70;;;18.40;43.30;;;;;;4953366;29;20083;-82
2022/03/09 05:23:12;;;;;;;2.28;0.63;;;18.40;43.30;;;;;;4966729;23;20060;-83
2022/03/09 05:25:37;;;;;;;1.20;0.63;;;18.40;43.30;;;;;;4933424;29;20389;-82
2022/03/09 05:28:03;;;;;;;1.58;0.60;;;18.40;43.30;;;;;;4932714;29;20048;-83
2022/03/09 05:30:29;;;;;;;2.00;0.70;;;18.40;43.30;;;;;;4917468;29;20044;-82
2022/03/09 05:32:58;;;;;;;2.08;0.70;;;18.40;43.50;;;;;;4933112;29;20044;-82
2022/03/09 05:35:23;;;;;;;2.03;0.60;;;18.40;43.30;;;;;;4932397;29;20499;-82
2022/03/09 05:37:52;;;;;;;2.05;0.73;;;18.40;43.30;;;;;;4933221;29;20043;-82
2022/03/09 05:40:17;;;;;;;1.70;0.70;;;18.40;43.30;;;;;;4932869;29;20039;-82
2022/03/09 05:42:46;;;;;;;1.90;0.63;;;18.40;43.30;;;;;;4942363;23;20122;-82
2022/03/09 05:45:12;;;;;;;1.67;0.70;;;18.40;43.30;;;;;;4936225;29;20061;-82
2022/03/09 05:47:38;;;;;;;2.72;0.80;;;18.80;43.50;;;;;;4936651;29;20492;-82
2022/03/09 05:50:04;;;;;;;1.40;0.60;;;18.40;43.30;;;;;;4935356;29;20054;-82
2022/03/09 05:52:29;;;;;;;3.00;0.80;;;18.40;43.30;;;;;;4936426;29;20058;-82
2022/03/09 05:54:55;;;;;;;2.40;0.60;;;18.30;43.30;;;;;;4936112;29;20093;-82
2022/03/09 05:57:30;;;;;;;1.63;0.65;;;18.30;43.30;;;;;;4934764;29;20054;-82
2022/03/09 05:59:56;;;;;;;2.70;0.60;;;18.30;43.30;;;;;;4934742;29;20085;-82
2022/03/09 06:02:25;;;;;;;2.08;1.00;;;18.30;43.20;;;;;;4935413;29;20137;-82
2022/03/09 06:04:51;;;;;;;1.95;0.65;;;18.30;43.30;;;;;;4935809;29;20558;-82
2022/03/09 06:07:16;;;;;;;1.40;0.70;;;18.30;43.30;;;;;;4936009;29;20404;-82
2022/03/09 06:09:42;;;;;;;2.78;0.70;;;18.30;43.30;;;;;;4935175;29;20053;-82
2022/03/09 06:12:08;;;;;;;1.77;0.60;;;18.30;43.30;;;;;;4935920;29;20094;-82
2022/03/09 06:14:36;;;;;;;1.92;0.70;;;18.30;43.20;;;;;;4935697;29;20050;-82
2022/03/09 06:17:01;;;;;;;2.08;0.70;;;18.30;43.30;;;;;;4934973;29;20047;-83
2022/03/09 06:19:27;;;;;;;1.30;0.63;;;18.30;43.30;;;;;;4935299;28;20102;-83
2022/03/09 06:21:52;;;;;;;1.13;0.60;;;18.30;43.30;;;;;;4935413;29;20051;-83
2022/03/09 06:24:18;;;;;;;2.13;0.70;;;19.70;44.10;;;;;;4935089;29;20043;-83
2022/03/09 06:26:46;;;;;;;4.32;0.90;;;18.30;43.30;;;;;;4935535;29;20389;-83
2022/03/09 06:29:12;;;;;;;2.08;0.70;;;18.30;43.30;;;;;;4935462;29;20066;-83
2022/03/09 06:31:38;;;;;;;0.88;0.40;;;18.30;43.30;;;;;;4922230;29;20039;-82
2022/03/09 06:34:04;;;;;;;1.92;0.75;;;18.20;43.30;;;;;;4935452;29;20564;-83
2022/03/09 06:36:30;;;;;;;1.63;0.70;;;18.30;43.30;;;;;;4928128;29;20075;-83
2022/03/09 06:38:58;;;;;;;3.67;0.85;;;18.20;43.20;;;;;;4915315;29;20060;-83
2022/03/09 06:41:23;;;;;;;2.08;0.63;;;19.50;44.00;;;;;;4923350;29;20078;-83
2022/03/09 06:44:01;;;;;;;1.60;0.60;;;19.70;44.30;;;;;;4912729;29;20064;-83
2022/03/09 06:46:29;;;;;;;2.28;0.70;;;17.80;43.80;;;;;;4914649;29;20044;-83
2022/03/09 06:49:23;;;;;;;1.83;0.70;;;16.90;42.70;;;;;;4919288;29;20052;-83
2022/03/09 06:51:58;;;;;;;1.85;0.82;;;18.10;43.20;;;;;;4916805;29;20055;-83
2022/03/09 06:54:33;;;;;;;2.00;0.70;;;17.10;43.80;;;;;;4931781;29;20058;-83
2022/03/09 06:56:58;;;;;;;2.58;0.65;;;19.50;44.70;;;;;;4931985;29;20058;-83
2022/03/09 06:59:52;;;;;;;1.50;0.50;;;19.40;44.00;;;;;;4931153;29;20142;-85
2022/03/09 07:02:18;;;;;;;2.42;0.65;;;18.20;43.30;;;;;;4932332;29;20062;-86
2022/03/09 07:05:07;;;;;;;1.90;0.70;;;16.50;42.80;;;;;;4931855;29;20116;-85
2022/03/09 07:07:35;;;;;;;1.75;0.50;;;18.10;43.30;;;;;;4895820;29;20138;-85
2022/03/09 07:10:11;;;;;;;1.98;0.60;;;19.20;44.20;;;;;;4914334;29;20111;-86
2022/03/09 07:12:40;;;;;;;1.70;0.65;;;18.50;43.80;;;;;;4912827;29;20079;-85
2022/03/09 07:15:30;;;;;;;1.48;0.60;;;18.30;43.60;;;;;;4916468;29;20051;-86
2022/03/09 07:17:55;;;;;;;1.42;0.60;;;19.40;43.90;;;;;;4915310;29;20083;-85
2022/03/09 07:20:30;;;;;;;1.50;0.50;;;18.30;43.60;;;;;;4929929;29;20083;-86
2022/03/09 07:22:58;;;;;;;1.40;0.60;;;19.50;44.60;;;;;;4928632;29;20527;-85
2022/03/09 07:25:30;;;;;;;2.03;0.55;;;19.80;44.80;;;;;;4923978;29;20083;-85
2022/03/09 07:28:05;;;;;;;2.00;0.70;;;18.20;44.00;;;;;;4902073;29;20155;-86
2022/03/09 07:30:50;;;;;;;2.17;0.57;;;18.10;44.10;;;;;;4932948;29;20570;-85
2022/03/09 07:34:14;;;;;;;0.98;0.50;;;18.10;44.20;;;;;;4931638;29;20119;-86
2022/03/09 07:36:42;;;;;;;1.40;0.70;;;18.00;43.20;;;;;;4915166;29;20464;-85
2022/03/09 07:39:09;;;;;;;1.70;0.57;;;19.00;44.00;;;;;;4917809;29;20062;-86
2022/03/09 07:41:34;;;;;;;1.33;0.65;;;16.60;42.80;;;;;;4917060;29;20597;-86
2022/03/09 07:47:16;;;;;;;1.17;0.60;;;18.90;44.10;;;;;;4895739;29;20055;-85
2022/03/09 07:49:41;;;;;;;1.52;0.60;;;17.70;43.50;;;;;;4917120;29;20400;-84
2022/03/09 07:52:07;;;;;;;2.03;0.70;;;18.10;43.70;;;;;;4917967;29;20138;-85
2022/03/09 07:54:38;;;;;;;1.27;0.52;;;18.20;43.40;;;;;;4918013;29;20059;-85
2022/03/09 07:57:16;;;;;;;1.48;0.70;;;18.90;43.70;;;;;;4916814;29;20048;-86
2022/03/09 08:04:01;;;;;;;1.77;0.60;;;18.10;43.30;;;;;;4931744;29;20142;-85
2022/03/09 08:07:13;;;;;;;3.05;0.98;;;17.90;43.20;;;;;;4932276;29;20411;-81
2022/03/09 08:17:03;;;;;;;2.50;1.10;;;18.40;43.30;;;;;;5930435;23;20092;-86
2022/03/09 08:19:59;;;;;;;2.55;0.90;;;18.10;43.40;;;;;;4939199;29;20051;-86
2022/03/09 08:22:31;;;;;;;4.05;1.00;;;17.50;42.90;;;;;;4935082;29;20790;-86
2022/03/09 08:24:57;;;;;;;5.57;1.30;;;16.50;42.80;;;;;;4936442;29;20062;-86
2022/03/09 08:27:25;;;;;;;4.18;1.10;;;18.10;43.50;;;;;;4936954;29;20055;-86
2022/03/09 08:30:02;;;;;;;3.83;1.00;;;17.40;42.90;;;;;;4920636;29;20050;-87
2022/03/09 08:32:27;;;;;;;3.90;0.90;;;18.20;43.40;;;;;;4923698;29;20051;-86
2022/03/09 08:34:56;;;;;;;3.22;1.13;;;18.20;44.20;;;;;;4916753;29;20588;-85
2022/03/09 08:44:52;;;;;;;3.60;0.93;;;18.30;43.20;;;;;;4930052;29;20631;-86
2022/03/09 08:47:33;;;;;;;2.90;0.88;;;18.40;43.80;;;;;;4913889;29;20054;-82
2022/03/09 08:50:17;;;;;;;3.60;1.00;;;17.30;43.00;;;;;;4898479;29;20055;-86
2022/03/09 09:08:10;;;;;;;2.35;0.80;;;19.00;43.60;;;;;;4856283;29;20154;-86
2022/03/09 09:10:57;;;;;;;2.30;0.80;;;18.10;43.10;;;;;;4918904;29;20075;-87
2022/03/09 09:13:29;;;;;;;3.28;0.80;;;19.50;44.60;;;;;;4926631;29;20059;-85
2022/03/09 09:19:23;;;;;;;2.45;0.75;;;17.40;43.70;;;;;;4932199;29;20055;-86
2022/03/09 09:22:32;;;;;;;4.05;0.75;;;18.60;44.20;;;;;;4937210;29;20497;-86
2022/03/09 09:27:38;;;;;;;1.67;0.60;;;18.60;43.10;;;;;;5334409;23;20062;-86
2022/03/09 09:30:07;;;;;;;2.00;0.85;;;20.00;44.00;;;;;;4937226;29;20059;-86
2022/03/09 09:32:46;;;;;;;1.88;0.60;;;18.60;44.00;;;;;;4936933;29;20045;-86
2022/03/09 09:35:11;;;;;;;2.55;0.93;;;18.60;43.70;;;;;;4937278;29;20047;-85
2022/03/09 09:37:53;;;;;;;2.00;0.77;;;16.40;42.70;;;;;;4937537;29;20054;-85
2022/03/09 09:47:27;;;;;;;2.20;0.70;;;18.50;44.70;;;;;;4903188;29;20079;-87
2022/03/09 09:58:32;;;;;;;1.30;0.70;;;18.80;43.10;;;;;;4950071;23;20070;-87
2022/03/09 10:02:04;;;;;;;2.40;0.80;;;18.60;42.90;;;;;;4859498;29;20509;-87
2022/03/09 10:04:32;;;;;;;1.95;0.60;;;18.80;43.00;;;;;;4804106;29;20095;-86
2022/03/09 10:07:19;;;;;;;2.67;0.80;;;17.80;43.10;;;;;;4819856;23;20044;-86
2022/03/09 10:17:38;;;;;;;3.25;1.33;;;18.50;42.50;;;;;;5887660;23;20052;-87
2022/03/09 10:20:09;;;;;;;5.47;1.30;;;18.70;42.90;;;;;;4912696;29;20060;-87
2022/03/09 10:22:41;;;;;;;5.18;1.75;;;18.80;42.70;;;;;;4922868;29;20141;-87
2022/03/09 10:25:20;;;;;;;3.63;1.40;;;20.10;43.70;;;;;;4935104;29;20142;-87
2022/03/09 10:35:32;;;;;;;2.95;1.60;;;18.90;42.70;;;;;;4950208;29;20057;-85
2022/03/09 10:38:03;;;;;;;3.65;1.65;;;19.30;42.80;;;;;;4918439;29;20051;-85
2022/03/09 10:41:42;;;;;;;8.25;2.05;;;17.90;41.90;;;;;;4934764;29;20083;-90
2022/03/09 10:44:13;;;;;;;5.65;2.10;;;18.30;42.00;;;;;;4839527;29;20406;-88
2022/03/09 10:48:19;;;;;;;13.82;2.38;;;20.00;43.50;;;;;;4824229;29;20072;-88
2022/03/09 10:51:02;;;;;;;4.22;2.40;;;18.90;42.20;;;;;;4837770;29;20053;-89
2022/03/09 10:58:17;;;;;;;5.78;2.58;;;18.20;41.70;;;;;;4844302;29;20466;-89
2022/03/09 11:00:53;;;;;;;6.45;2.65;;;19.10;42.20;;;;;;4852484;29;22063;-82
2022/03/09 11:03:23;;;;;;;4.88;2.00;;;19.00;41.90;;;;;;4885357;29;20881;-84
2022/03/09 11:06:03;;;;;;;5.72;2.40;;;19.00;41.90;;;;;;4901103;29;20071;-81
2022/03/09 11:08:30;;;;;;;5.25;2.20;;;19.10;42.00;;;;;;4922065;29;20043;-84
2022/03/09 11:10:58;;;;;;;3.72;2.15;;;19.10;42.00;;;;;;4929991;29;20051;-88
2022/03/09 11:13:34;;;;;;;4.32;2.08;;;19.10;42.00;;;;;;4954877;29;20059;-86
2022/03/09 11:16:00;;;;;;;7.72;1.92;;;19.20;42.00;;;;;;4937289;29;20043;-86
2022/03/09 11:18:48;;;;;;;4.53;1.60;;;19.20;42.00;;;;;;4944636;29;20475;-87
2022/03/09 11:21:14;;;;;;;3.05;1.40;;;19.20;42.10;;;;;;4942303;29;20062;-86
2022/03/09 11:23:40;;;;;;;5.30;1.70;;;19.50;42.30;;;;;;4919996;29;20047;-86
2022/03/09 11:26:25;;;;;;;3.08;1.50;;;17.30;41.50;;;;;;4909375;29;20393;-86
2022/03/09 11:29:09;;;;;;;2.95;1.30;;;18.60;41.70;;;;;;4903813;29;20407;-86
2022/03/09 11:31:49;;;;;;;2.35;1.10;;;19.10;41.90;;;;;;4933768;29;20046;-86
2022/03/09 11:35:05;;;;;;;3.92;1.50;;;17.00;40.90;;;;;;4922890;29;20059;-87
2022/03/09 11:37:41;;;;;;;3.05;1.48;;;19.40;42.10;;;;;;4885760;29;20077;-86
2022/03/09 11:40:06;;;;;;;2.83;1.30;;;19.00;41.90;;;;;;4925563;29;20052;-86
2022/03/09 11:42:44;;;;;;;2.22;1.17;;;19.40;42.50;;;;;;4941566;29;20050;-87
2022/03/09 11:48:47;;;;;;;2.28;1.27;;;19.40;42.20;;;;;;4935494;29;20111;-87
2022/03/09 11:53:50;;;;;;;3.10;1.00;;;19.50;42.20;;;;;;5038390;23;20508;-85
2022/03/09 11:56:55;;;;;;;1.73;0.85;;;19.40;42.30;;;;;;4918911;29;20134;-85
2022/03/09 11:59:26;;;;;;;3.40;0.98;;;20.10;42.80;;;;;;4904752;29;20064;-86
2022/03/09 12:01:57;;;;;;;2.60;0.98;;;19.20;42.20;;;;;;4919302;29;20047;-85
2022/03/09 12:04:45;;;;;;;2.10;0.75;;;20.80;43.40;;;;;;4919612;29;20141;-86
2022/03/09 12:07:29;;;;;;;2.47;1.00;;;20.60;43.60;;;;;;4936441;29;20065;-84
2022/03/09 12:09:56;;;;;;;1.58;0.90;;;19.50;42.20;;;;;;4920629;29;20827;-85
2022/03/09 12:12:22;;;;;;;1.95;0.80;;;17.40;41.10;;;;;;4918972;29;20039;-85
2022/03/09 12:15:13;;;;;;;2.13;0.98;;;19.10;42.20;;;;;;4892310;29;20392;-86
2022/03/09 12:18:00;;;;;;;2.17;0.90;;;19.50;42.10;;;;;;4921283;29;20609;-85
2022/03/09 12:20:37;;;;;;;2.33;1.00;;;20.50;42.90;;;;;;4899914;29;20087;-84
2022/03/09 12:23:07;;;;;;;2.15;0.90;;;19.60;42.60;;;;;;4917844;29;20048;-85
2022/03/09 12:25:48;;;;;;;2.15;0.93;;;19.50;42.30;;;;;;4932832;29;20058;-85
2022/03/09 12:28:23;;;;;;;1.67;0.88;;;20.60;43.00;;;;;;4935714;29;20454;-85
2022/03/09 12:31:11;;;;;;;2.42;0.95;;;20.90;43.50;;;;;;4935292;29;20111;-85
2022/03/09 12:33:39;;;;;;;1.95;0.93;;;19.60;42.10;;;;;;4917343;29;20540;-84
2022/03/09 12:36:22;;;;;;;1.92;0.80;;;19.50;42.10;;;;;;4918468;29;20138;-85
2022/03/09 12:38:54;;;;;;;1.73;0.88;;;19.80;42.60;;;;;;4920591;29;20181;-84
2022/03/09 12:41:34;;;;;;;2.65;0.80;;;20.90;42.90;;;;;;4931960;29;20796;-85
2022/03/09 12:44:17;;;;;;;2.08;0.80;;;21.20;42.90;;;;;;4935995;29;20406;-84
2022/03/09 12:46:44;;;;;;;2.00;0.73;;;20.00;42.30;;;;;;4936879;29;20141;-85
2022/03/09 12:53:00;;;;;;;1.80;0.77;;;20.30;42.80;;;;;;4893890;29;20079;-85
2022/03/09 12:55:26;;;;;;;1.67;0.80;;;19.70;42.10;;;;;;4907987;29;20094;-85
2022/03/09 12:57:54;;;;;;;2.25;0.90;;;19.80;42.50;;;;;;4921962;29;20643;-84
2022/03/09 13:01:02;;;;;;;1.30;0.68;;;19.70;42.60;;;;;;4945014;29;20052;-85
2022/03/09 13:03:28;;;;;;;2.63;0.75;;;19.80;42.20;;;;;;4937511;29;20175;-85
2022/03/09 13:05:53;;;;;;;2.47;0.90;;;21.20;43.30;;;;;;4925634;29;20043;-85
2022/03/09 13:08:19;;;;;;;1.85;0.80;;;18.00;41.40;;;;;;4925214;29;20099;-86
2022/03/09 13:10:49;;;;;;;1.55;0.70;;;20.80;43.10;;;;;;4926183;29;20063;-86
2022/03/09 13:13:14;;;;;;;2.55;0.75;;;21.00;43.10;;;;;;4928547;29;20042;-85
2022/03/09 13:15:59;;;;;;;1.40;0.68;;;17.50;41.20;;;;;;4943119;29;20047;-85
2022/03/09 13:18:27;;;;;;;2.90;0.90;;;18.60;42.20;;;;;;4918685;29;20103;-85
2022/03/09 13:21:18;;;;;;;1.52;0.60;;;20.50;42.60;;;;;;4898131;29;20052;-86
2022/03/09 13:24:07;;;;;;;2.15;0.80;;;19.80;42.60;;;;;;4905800;29;20043;-85
2022/03/09 13:29:25;;;;;;;3.55;1.83;;;21.40;42.70;;;;;;4891432;29;20059;-86
2022/03/09 13:32:49;;;;;;;4.28;1.75;;;21.10;42.70;;;;;;4931744;29;20054;-88
2022/03/09 13:35:22;;;;;;;3.10;1.38;;;18.60;41.00;;;;;;4820456;29;20067;-89
2022/03/09 13:38:01;;;;;;;3.22;1.55;;;19.10;41.40;;;;;;4852849;29;20089;-89
2022/03/09 13:40:45;;;;;;;3.10;1.60;;;18.90;41.40;;;;;;4910295;29;20056;-87
2022/03/09 13:43:11;;;;;;;6.50;4.22;;;21.10;41.90;;;;;;4933637;29;20507;-83
2022/03/09 13:45:49;;;;;;;8.85;6.00;;;19.90;40.30;;;;;;4916078;29;20083;-84
2022/03/09 13:48:27;;;;;;;20.05;6.10;;;19.40;37.30;;;;;;4914190;28;20118;-84
2022/03/09 13:51:00;;;;;;;6.63;4.00;;;21.20;38.40;;;;;;4927477;29;20573;-87
2022/03/09 13:53:32;;;;;;;14.02;4.18;;;19.60;38.00;;;;;;4941276;29;20066;-87
2022/03/09 13:56:18;;;;;;;9.68;3.33;;;20.50;39.50;;;;;;4930038;29;20051;-86
2022/03/09 13:59:02;;;;;;;9.18;3.70;;;19.40;39.90;;;;;;4935288;29;20051;-86
2022/03/09 14:01:35;;;;;;;5.80;2.75;;;19.80;40.10;;;;;;4934903;29;20484;-86
2022/03/09 14:19:37;;;;;;;4.50;2.25;;;19.90;40.60;;;;;;4931236;29;20059;-84
2022/03/09 14:22:21;;;;;;;4.07;2.38;;;19.30;40.80;;;;;;4932374;29;20055;-84
2022/03/09 14:24:46;;;;;;;4.57;2.42;;;19.90;41.00;;;;;;4897617;29;20048;-84
2022/03/09 14:27:25;;;;;;;5.80;2.10;;;21.20;41.90;;;;;;4897234;29;20051;-85
2022/03/09 14:29:51;;;;;;;4.60;2.25;;;18.00;40.70;;;;;;4898139;29;20048;-84
2022/03/09 14:32:18;;;;;;;5.43;2.13;;;18.40;40.40;;;;;;4913984;29;20055;-85
2022/03/09 14:34:58;;;;;;;4.38;1.60;;;19.90;40.80;;;;;;4915048;29;20047;-85
2022/03/09 14:37:29;;;;;;;4.88;1.92;;;19.70;41.70;;;;;;4915140;29;20110;-86
2022/03/09 14:40:40;;;;;;;3.28;1.67;;;19.90;41.10;;;;;;4916037;29;20086;-86
2022/03/09 14:43:26;;;;;;;5.45;1.30;;;19.20;40.50;;;;;;4889794;29;20467;-86
2022/03/09 14:46:50;;;;;;;3.90;1.60;;;17.80;39.90;;;;;;4914710;29;20082;-86
2022/03/09 14:49:18;;;;;;;2.42;1.00;;;20.20;41.00;;;;;;4890852;29;20143;-86
2022/03/09 14:52:24;;;;;;;3.33;1.20;;;20.10;41.30;;;;;;4927227;29;20551;-89
2022/03/09 14:54:50;;;;;;;2.50;1.30;;;19.80;40.80;;;;;;4934250;29;20051;-88
2022/03/09 14:57:18;;;;;;;2.38;1.10;;;21.60;42.70;;;;;;4915245;29;20452;-87
2022/03/09 15:00:13;;;;;;;2.70;0.93;;;21.50;41.60;;;;;;4896422;29;20126;-85
2022/03/09 15:02:39;;;;;;;3.25;0.93;;;20.30;41.10;;;;;;4880682;29;20504;-86
2022/03/09 15:05:05;;;;;;;2.70;1.20;;;20.30;41.50;;;;;;4903716;29;20044;-86
2022/03/09 15:07:31;;;;;;;3.03;0.95;;;20.30;41.10;;;;;;4932405;29;20044;-85
2022/03/09 15:09:57;;;;;;;2.10;0.82;;;20.40;41.10;;;;;;4915115;29;20107;-86
2022/03/09 15:12:30;;;;;;;1.92;0.80;;;20.40;41.40;;;;;;4914315;29;20051;-85
2022/03/09 15:14:56;;;;;;;6.38;1.50;;;19.40;40.80;;;;;;4915288;29;20047;-84
2022/03/09 15:17:21;;;;;;;6.25;2.22;;;21.90;42.20;;;;;;4932878;29;20488;-86
2022/03/09 15:20:13;;;;;;;4.22;1.92;;;20.40;40.60;;;;;;4914604;29;20055;-85
2022/03/09 15:22:38;;;;;;;4.23;1.70;;;20.40;40.40;;;;;;4896467;29;20173;-84